sensor_id;sensor_type;location;lat;lon;timestamp;P1;durP1;ratioP1;P2;durP2;ratioP2
63438;SDS011;49567;48.958;8.294;2022-07-29T00:02:20;3.03;;;2.10;;
63438;SDS011;49567;48.958;8.294;2022-07-29T00:04:45;2.50;;;2.28;;
63438;SDS011;49567;48.958;8.294;2022-07-29T00:07:11;1.90;;;1.80;;
63438;SDS011;49567;48.958;8.294;2022-07-29T00:09:36;4.45;;;2.10;;
63438;SDS011;49567;48.958;8.294;2022-07-29T00:12:01;2.17;;;2.00;;
63438;SDS011;49567;48.958;8.294;2022-07-29T00:14:27;2.28;;;2.05;;
63438;SDS011;49567;48.958;8.294;2022-07-29T00:16:53;2.50;;;1.85;;
63438;SDS011;49567;48.958;8.294;2022-07-29T00:19:18;2.60;;;2.03;;
63438;SDS011;49567;48.958;8.294;2022-07-29T00:21:44;2.60;;;2.20;;
63438;SDS011;49567;48.958;8.294;2022-07-29T00:24:09;2.50;;;1.90;;
63438;SDS011;49567;48.958;8.294;2022-07-29T00:26:34;2.47;;;2.07;;
63438;SDS011;49567;48.958;8.294;2022-07-29T00:29:00;2.77;;;2.40;;
63438;SDS011;49567;48.958;8.294;2022-07-29T00:31:26;5.23;;;1.90;;
63438;SDS011;49567;48.958;8.294;2022-07-29T00:33:51;2.00;;;1.97;;
63438;SDS011;49567;48.958;8.294;2022-07-29T00:36:17;3.83;;;2.38;;
63438;SDS011;49567;48.958;8.294;2022-07-29T00:38:42;2.23;;;2.10;;
63438;SDS011;49567;48.958;8.294;2022-07-29T00:41:10;2.33;;;2.13;;
63438;SDS011;49567;48.958;8.294;2022-07-29T00:43:38;2.03;;;1.77;;
63438;SDS011;49567;48.958;8.294;2022-07-29T00:46:03;2.03;;;1.93;;
63438;SDS011;49567;48.958;8.294;2022-07-29T00:48:28;2.00;;;1.80;;
63438;SDS011;49567;48.958;8.294;2022-07-29T00:50:54;2.00;;;1.90;;
63438;SDS011;49567;48.958;8.294;2022-07-29T00:53:20;3.10;;;1.98;;
63438;SDS011;49567;48.958;8.294;2022-07-29T00:55:46;2.77;;;2.27;;
63438;SDS011;49567;48.958;8.294;2022-07-29T00:58:12;2.00;;;1.80;;
63438;SDS011;49567;48.958;8.294;2022-07-29T01:00:38;3.67;;;2.42;;
63438;SDS011;49567;48.958;8.294;2022-07-29T01:03:05;3.05;;;2.28;;
63438;SDS011;49567;48.958;8.294;2022-07-29T01:05:31;3.97;;;2.17;;
63438;SDS011;49567;48.958;8.294;2022-07-29T01:07:57;4.80;;;2.65;;
63438;SDS011;49567;48.958;8.294;2022-07-29T01:10:22;2.70;;;2.33;;
63438;SDS011;49567;48.958;8.294;2022-07-29T01:12:50;2.58;;;2.33;;
63438;SDS011;49567;48.958;8.294;2022-07-29T01:15:17;3.03;;;2.50;;
63438;SDS011;49567;48.958;8.294;2022-07-29T01:17:44;2.83;;;2.30;;
63438;SDS011;49567;48.958;8.294;2022-07-29T01:20:24;2.38;;;2.28;;
63438;SDS011;49567;48.958;8.294;2022-07-29T01:23:08;3.92;;;2.05;;
63438;SDS011;49567;48.958;8.294;2022-07-29T01:28:47;2.60;;;2.40;;
63438;SDS011;49567;48.958;8.294;2022-07-29T01:31:26;2.65;;;2.42;;
63438;SDS011;49567;48.958;8.294;2022-07-29T01:33:58;2.38;;;2.20;;
63438;SDS011;49567;48.958;8.294;2022-07-29T01:36:29;2.63;;;2.30;;
63438;SDS011;49567;48.958;8.294;2022-07-29T01:39:02;2.43;;;2.20;;
63438;SDS011;49567;48.958;8.294;2022-07-29T01:41:32;3.13;;;2.25;;
63438;SDS011;49567;48.958;8.294;2022-07-29T01:44:01;2.25;;;2.13;;
63438;SDS011;49567;48.958;8.294;2022-07-29T01:46:35;2.95;;;2.78;;
63438;SDS011;49567;48.958;8.294;2022-07-29T01:49:08;2.40;;;2.30;;
63438;SDS011;49567;48.958;8.294;2022-07-29T01:51:40;2.92;;;2.72;;
63438;SDS011;49567;48.958;8.294;2022-07-29T01:54:17;2.50;;;2.30;;
63438;SDS011;49567;48.958;8.294;2022-07-29T01:56:45;2.60;;;2.40;;
63438;SDS011;49567;48.958;8.294;2022-07-29T01:59:14;7.00;;;2.45;;
63438;SDS011;49567;48.958;8.294;2022-07-29T02:01:42;2.13;;;1.98;;
63438;SDS011;49567;48.958;8.294;2022-07-29T02:04:10;2.25;;;2.15;;
63438;SDS011;49567;48.958;8.294;2022-07-29T02:06:38;3.92;;;2.75;;
63438;SDS011;49567;48.958;8.294;2022-07-29T02:09:05;2.55;;;2.40;;
63438;SDS011;49567;48.958;8.294;2022-07-29T02:11:32;2.58;;;2.30;;
63438;SDS011;49567;48.958;8.294;2022-07-29T02:14:00;2.40;;;2.20;;
63438;SDS011;49567;48.958;8.294;2022-07-29T02:16:27;2.35;;;2.25;;
63438;SDS011;49567;48.958;8.294;2022-07-29T02:18:55;2.85;;;2.33;;
63438;SDS011;49567;48.958;8.294;2022-07-29T02:21:24;3.27;;;2.10;;
63438;SDS011;49567;48.958;8.294;2022-07-29T02:23:51;3.72;;;2.50;;
63438;SDS011;49567;48.958;8.294;2022-07-29T02:26:19;3.07;;;2.70;;
63438;SDS011;49567;48.958;8.294;2022-07-29T02:28:46;2.88;;;2.33;;
63438;SDS011;49567;48.958;8.294;2022-07-29T02:31:13;2.60;;;2.35;;
63438;SDS011;49567;48.958;8.294;2022-07-29T02:33:40;2.88;;;2.67;;
63438;SDS011;49567;48.958;8.294;2022-07-29T02:36:07;2.50;;;2.30;;
63438;SDS011;49567;48.958;8.294;2022-07-29T02:38:33;4.03;;;2.53;;
63438;SDS011;49567;48.958;8.294;2022-07-29T02:44:15;2.35;;;2.10;;
63438;SDS011;49567;48.958;8.294;2022-07-29T02:46:48;3.70;;;2.55;;
63438;SDS011;49567;48.958;8.294;2022-07-29T02:52:23;3.55;;;2.70;;
63438;SDS011;49567;48.958;8.294;2022-07-29T02:55:00;4.03;;;2.78;;
63438;SDS011;49567;48.958;8.294;2022-07-29T02:58:13;5.23;;;3.10;;
63438;SDS011;49567;48.958;8.294;2022-07-29T03:00:25;5.38;;;2.63;;
63438;SDS011;49567;48.958;8.294;2022-07-29T03:02:53;2.40;;;2.25;;
63438;SDS011;49567;48.958;8.294;2022-07-29T03:05:21;2.63;;;2.42;;
63438;SDS011;49567;48.958;8.294;2022-07-29T03:07:49;3.55;;;2.90;;
63438;SDS011;49567;48.958;8.294;2022-07-29T03:10:19;3.55;;;2.70;;
63438;SDS011;49567;48.958;8.294;2022-07-29T03:12:45;3.28;;;3.00;;
63438;SDS011;49567;48.958;8.294;2022-07-29T03:15:12;2.80;;;2.50;;
63438;SDS011;49567;48.958;8.294;2022-07-29T03:17:38;2.67;;;2.42;;
63438;SDS011;49567;48.958;8.294;2022-07-29T03:20:04;2.97;;;2.70;;
63438;SDS011;49567;48.958;8.294;2022-07-29T03:22:32;2.72;;;2.53;;
63438;SDS011;49567;48.958;8.294;2022-07-29T03:24:57;3.00;;;2.60;;
63438;SDS011;49567;48.958;8.294;2022-07-29T03:27:31;2.90;;;2.70;;
63438;SDS011;49567;48.958;8.294;2022-07-29T03:29:57;2.90;;;2.70;;
63438;SDS011;49567;48.958;8.294;2022-07-29T03:32:22;2.83;;;2.70;;
63438;SDS011;49567;48.958;8.294;2022-07-29T03:34:47;6.47;;;2.90;;
63438;SDS011;49567;48.958;8.294;2022-07-29T03:37:12;4.60;;;2.57;;
63438;SDS011;49567;48.958;8.294;2022-07-29T03:39:39;3.13;;;2.83;;
63438;SDS011;49567;48.958;8.294;2022-07-29T03:42:06;3.17;;;2.90;;
63438;SDS011;49567;48.958;8.294;2022-07-29T03:44:35;4.25;;;2.78;;
63438;SDS011;49567;48.958;8.294;2022-07-29T03:47:02;4.90;;;2.63;;
63438;SDS011;49567;48.958;8.294;2022-07-29T03:49:31;3.17;;;2.80;;
63438;SDS011;49567;48.958;8.294;2022-07-29T03:51:58;2.92;;;2.72;;
63438;SDS011;49567;48.958;8.294;2022-07-29T03:54:24;4.05;;;3.45;;
63438;SDS011;49567;48.958;8.294;2022-07-29T03:56:50;4.57;;;3.78;;
63438;SDS011;49567;48.958;8.294;2022-07-29T03:59:18;3.25;;;2.92;;
63438;SDS011;49567;48.958;8.294;2022-07-29T04:01:45;5.45;;;4.20;;
63438;SDS011;49567;48.958;8.294;2022-07-29T04:04:12;4.38;;;3.42;;
63438;SDS011;49567;48.958;8.294;2022-07-29T04:06:41;4.57;;;3.13;;
63438;SDS011;49567;48.958;8.294;2022-07-29T04:09:08;3.30;;;3.00;;
63438;SDS011;49567;48.958;8.294;2022-07-29T04:11:34;4.15;;;2.83;;
63438;SDS011;49567;48.958;8.294;2022-07-29T04:14:01;4.07;;;3.20;;
63438;SDS011;49567;48.958;8.294;2022-07-29T04:16:28;7.30;;;3.42;;
63438;SDS011;49567;48.958;8.294;2022-07-29T04:18:53;3.17;;;2.97;;
63438;SDS011;49567;48.958;8.294;2022-07-29T04:21:19;3.47;;;2.77;;
63438;SDS011;49567;48.958;8.294;2022-07-29T04:23:44;4.23;;;3.53;;
63438;SDS011;49567;48.958;8.294;2022-07-29T04:26:13;3.75;;;2.75;;
63438;SDS011;49567;48.958;8.294;2022-07-29T04:28:38;3.05;;;2.85;;
63438;SDS011;49567;48.958;8.294;2022-07-29T04:31:05;3.53;;;3.10;;
63438;SDS011;49567;48.958;8.294;2022-07-29T04:33:30;3.80;;;3.50;;
63438;SDS011;49567;48.958;8.294;2022-07-29T04:35:55;5.03;;;3.13;;
63438;SDS011;49567;48.958;8.294;2022-07-29T04:38:21;3.67;;;3.37;;
63438;SDS011;49567;48.958;8.294;2022-07-29T04:40:47;4.32;;;2.95;;
63438;SDS011;49567;48.958;8.294;2022-07-29T04:43:12;3.57;;;3.23;;
63438;SDS011;49567;48.958;8.294;2022-07-29T04:45:37;3.43;;;3.20;;
63438;SDS011;49567;48.958;8.294;2022-07-29T04:48:02;3.60;;;3.30;;
63438;SDS011;49567;48.958;8.294;2022-07-29T04:50:28;3.23;;;3.03;;
63438;SDS011;49567;48.958;8.294;2022-07-29T04:52:53;3.28;;;3.00;;
63438;SDS011;49567;48.958;8.294;2022-07-29T04:55:18;3.57;;;3.10;;
63438;SDS011;49567;48.958;8.294;2022-07-29T04:57:44;4.47;;;3.37;;
63438;SDS011;49567;48.958;8.294;2022-07-29T05:00:09;3.30;;;3.00;;
63438;SDS011;49567;48.958;8.294;2022-07-29T05:02:35;3.67;;;2.90;;
63438;SDS011;49567;48.958;8.294;2022-07-29T05:05:00;4.93;;;2.77;;
63438;SDS011;49567;48.958;8.294;2022-07-29T05:07:26;2.77;;;2.60;;
63438;SDS011;49567;48.958;8.294;2022-07-29T05:09:51;3.00;;;2.80;;
63438;SDS011;49567;48.958;8.294;2022-07-29T05:12:17;4.22;;;3.05;;
63438;SDS011;49567;48.958;8.294;2022-07-29T05:14:42;2.87;;;2.63;;
63438;SDS011;49567;48.958;8.294;2022-07-29T05:17:08;3.20;;;2.90;;
63438;SDS011;49567;48.958;8.294;2022-07-29T05:19:33;4.27;;;2.80;;
63438;SDS011;49567;48.958;8.294;2022-07-29T05:21:58;3.30;;;2.97;;
63438;SDS011;49567;48.958;8.294;2022-07-29T05:24:24;3.42;;;2.38;;
63438;SDS011;49567;48.958;8.294;2022-07-29T05:26:50;5.40;;;2.67;;
63438;SDS011;49567;48.958;8.294;2022-07-29T05:29:15;2.73;;;2.40;;
63438;SDS011;49567;48.958;8.294;2022-07-29T05:31:40;2.57;;;2.27;;
63438;SDS011;49567;48.958;8.294;2022-07-29T05:34:06;4.57;;;2.87;;
63438;SDS011;49567;48.958;8.294;2022-07-29T05:36:31;2.63;;;2.53;;
63438;SDS011;49567;48.958;8.294;2022-07-29T05:38:56;4.10;;;2.87;;
63438;SDS011;49567;48.958;8.294;2022-07-29T05:41:22;3.47;;;2.60;;
63438;SDS011;49567;48.958;8.294;2022-07-29T05:43:47;4.97;;;3.03;;
63438;SDS011;49567;48.958;8.294;2022-07-29T05:46:13;5.07;;;3.10;;
63438;SDS011;49567;48.958;8.294;2022-07-29T05:48:41;2.88;;;2.67;;
63438;SDS011;49567;48.958;8.294;2022-07-29T05:51:06;3.43;;;3.00;;
63438;SDS011;49567;48.958;8.294;2022-07-29T05:53:32;3.50;;;3.20;;
63438;SDS011;49567;48.958;8.294;2022-07-29T05:55:57;3.77;;;2.70;;
63438;SDS011;49567;48.958;8.294;2022-07-29T05:58:22;2.93;;;2.70;;
63438;SDS011;49567;48.958;8.294;2022-07-29T06:00:48;4.70;;;3.70;;
63438;SDS011;49567;48.958;8.294;2022-07-29T06:03:13;5.33;;;4.80;;
63438;SDS011;49567;48.958;8.294;2022-07-29T06:05:38;6.25;;;3.42;;
63438;SDS011;49567;48.958;8.294;2022-07-29T06:08:04;3.93;;;3.23;;
63438;SDS011;49567;48.958;8.294;2022-07-29T06:10:31;4.77;;;3.00;;
63438;SDS011;49567;48.958;8.294;2022-07-29T06:12:57;5.28;;;3.38;;
63438;SDS011;49567;48.958;8.294;2022-07-29T06:15:22;3.57;;;3.13;;
63438;SDS011;49567;48.958;8.294;2022-07-29T06:17:47;6.20;;;3.50;;
63438;SDS011;49567;48.958;8.294;2022-07-29T06:20:13;4.77;;;3.30;;
63438;SDS011;49567;48.958;8.294;2022-07-29T06:22:38;4.07;;;3.63;;
63438;SDS011;49567;48.958;8.294;2022-07-29T06:25:04;3.90;;;3.10;;
63438;SDS011;49567;48.958;8.294;2022-07-29T06:27:29;5.03;;;3.50;;
63438;SDS011;49567;48.958;8.294;2022-07-29T06:29:55;7.67;;;3.63;;
63438;SDS011;49567;48.958;8.294;2022-07-29T06:32:21;3.40;;;3.20;;
63438;SDS011;49567;48.958;8.294;2022-07-29T06:34:46;3.47;;;3.20;;
63438;SDS011;49567;48.958;8.294;2022-07-29T06:37:11;3.40;;;2.67;;
63438;SDS011;49567;48.958;8.294;2022-07-29T06:39:37;4.23;;;3.20;;
63438;SDS011;49567;48.958;8.294;2022-07-29T06:42:06;5.87;;;2.97;;
63438;SDS011;49567;48.958;8.294;2022-07-29T06:44:31;4.28;;;2.90;;
63438;SDS011;49567;48.958;8.294;2022-07-29T06:46:58;7.93;;;3.30;;
63438;SDS011;49567;48.958;8.294;2022-07-29T06:49:24;7.70;;;2.92;;
63438;SDS011;49567;48.958;8.294;2022-07-29T06:51:51;3.42;;;2.72;;
63438;SDS011;49567;48.958;8.294;2022-07-29T06:54:17;6.47;;;3.07;;
63438;SDS011;49567;48.958;8.294;2022-07-29T06:56:42;5.13;;;3.00;;
63438;SDS011;49567;48.958;8.294;2022-07-29T06:59:08;3.92;;;3.00;;
63438;SDS011;49567;48.958;8.294;2022-07-29T07:01:36;5.50;;;2.97;;
63438;SDS011;49567;48.958;8.294;2022-07-29T07:04:02;3.58;;;2.67;;
63438;SDS011;49567;48.958;8.294;2022-07-29T07:06:27;3.20;;;2.90;;
63438;SDS011;49567;48.958;8.294;2022-07-29T07:08:52;4.53;;;2.87;;
63438;SDS011;49567;48.958;8.294;2022-07-29T07:11:18;4.40;;;2.77;;
63438;SDS011;49567;48.958;8.294;2022-07-29T07:13:43;2.83;;;2.63;;
63438;SDS011;49567;48.958;8.294;2022-07-29T07:16:08;5.13;;;2.60;;
63438;SDS011;49567;48.958;8.294;2022-07-29T07:18:33;2.70;;;2.50;;
63438;SDS011;49567;48.958;8.294;2022-07-29T07:20:59;3.00;;;2.50;;
63438;SDS011;49567;48.958;8.294;2022-07-29T07:23:24;2.70;;;2.50;;
63438;SDS011;49567;48.958;8.294;2022-07-29T07:25:49;3.97;;;2.70;;
63438;SDS011;49567;48.958;8.294;2022-07-29T07:28:15;4.00;;;2.10;;
63438;SDS011;49567;48.958;8.294;2022-07-29T07:30:40;5.13;;;2.60;;
63438;SDS011;49567;48.958;8.294;2022-07-29T07:33:05;6.23;;;2.70;;
63438;SDS011;49567;48.958;8.294;2022-07-29T07:35:30;2.87;;;2.30;;
63438;SDS011;49567;48.958;8.294;2022-07-29T07:37:56;3.67;;;2.20;;
63438;SDS011;49567;48.958;8.294;2022-07-29T07:50:27;4.45;;;2.38;;
63438;SDS011;49567;48.958;8.294;2022-07-29T07:52:53;2.77;;;2.13;;
63438;SDS011;49567;48.958;8.294;2022-07-29T07:55:22;4.75;;;2.45;;
63438;SDS011;49567;48.958;8.294;2022-07-29T07:57:48;2.20;;;2.00;;
63438;SDS011;49567;48.958;8.294;2022-07-29T08:00:13;3.50;;;1.80;;
63438;SDS011;49567;48.958;8.294;2022-07-29T08:02:40;1.90;;;1.80;;
63438;SDS011;49567;48.958;8.294;2022-07-29T08:05:08;2.10;;;2.00;;
63438;SDS011;49567;48.958;8.294;2022-07-29T08:07:41;2.92;;;2.70;;
63438;SDS011;49567;48.958;8.294;2022-07-29T08:10:11;3.70;;;1.65;;
63438;SDS011;49567;48.958;8.294;2022-07-29T08:12:36;2.67;;;2.03;;
63438;SDS011;49567;48.958;8.294;2022-07-29T08:15:02;2.75;;;1.77;;
63438;SDS011;49567;48.958;8.294;2022-07-29T08:17:28;3.60;;;2.13;;
63438;SDS011;49567;48.958;8.294;2022-07-29T08:19:54;3.67;;;2.23;;
63438;SDS011;49567;48.958;8.294;2022-07-29T08:22:19;2.30;;;2.00;;
63438;SDS011;49567;48.958;8.294;2022-07-29T08:24:44;3.70;;;2.10;;
63438;SDS011;49567;48.958;8.294;2022-07-29T08:27:17;4.55;;;1.77;;
63438;SDS011;49567;48.958;8.294;2022-07-29T08:29:43;4.50;;;2.00;;
63438;SDS011;49567;48.958;8.294;2022-07-29T08:32:08;2.33;;;2.03;;
63438;SDS011;49567;48.958;8.294;2022-07-29T08:34:34;3.40;;;1.93;;
63438;SDS011;49567;48.958;8.294;2022-07-29T08:36:59;3.53;;;2.20;;
63438;SDS011;49567;48.958;8.294;2022-07-29T08:39:24;2.70;;;1.93;;
63438;SDS011;49567;48.958;8.294;2022-07-29T08:41:50;2.83;;;2.00;;
63438;SDS011;49567;48.958;8.294;2022-07-29T08:44:16;3.63;;;1.85;;
63438;SDS011;49567;48.958;8.294;2022-07-29T08:46:42;4.50;;;1.53;;
63438;SDS011;49567;48.958;8.294;2022-07-29T08:49:08;2.13;;;1.67;;
63438;SDS011;49567;48.958;8.294;2022-07-29T08:51:33;1.87;;;1.77;;
63438;SDS011;49567;48.958;8.294;2022-07-29T08:54:01;3.63;;;1.80;;
63438;SDS011;49567;48.958;8.294;2022-07-29T08:56:27;1.98;;;1.83;;
63438;SDS011;49567;48.958;8.294;2022-07-29T08:58:54;2.67;;;1.67;;
63438;SDS011;49567;48.958;8.294;2022-07-29T09:01:21;3.92;;;1.67;;
63438;SDS011;49567;48.958;8.294;2022-07-29T09:03:48;5.35;;;1.90;;
63438;SDS011;49567;48.958;8.294;2022-07-29T09:06:14;4.00;;;1.98;;
63438;SDS011;49567;48.958;8.294;2022-07-29T09:08:41;5.93;;;1.83;;
63438;SDS011;49567;48.958;8.294;2022-07-29T09:11:07;1.60;;;1.50;;
63438;SDS011;49567;48.958;8.294;2022-07-29T09:13:32;4.35;;;1.95;;
63438;SDS011;49567;48.958;8.294;2022-07-29T09:15:58;1.77;;;1.67;;
63438;SDS011;49567;48.958;8.294;2022-07-29T09:18:33;2.63;;;1.80;;
63438;SDS011;49567;48.958;8.294;2022-07-29T09:21:07;2.15;;;1.60;;
63438;SDS011;49567;48.958;8.294;2022-07-29T09:24:00;2.38;;;1.90;;
63438;SDS011;49567;48.958;8.294;2022-07-29T09:26:34;2.40;;;1.77;;
63438;SDS011;49567;48.958;8.294;2022-07-29T09:29:08;2.15;;;1.33;;
63438;SDS011;49567;48.958;8.294;2022-07-29T09:31:39;4.97;;;1.60;;
63438;SDS011;49567;48.958;8.294;2022-07-29T09:34:06;3.90;;;1.80;;
63438;SDS011;49567;48.958;8.294;2022-07-29T09:36:39;3.90;;;1.95;;
63438;SDS011;49567;48.958;8.294;2022-07-29T09:39:07;1.88;;;1.70;;
63438;SDS011;49567;48.958;8.294;2022-07-29T09:41:45;3.23;;;1.73;;
63438;SDS011;49567;48.958;8.294;2022-07-29T09:44:13;5.85;;;1.90;;
63438;SDS011;49567;48.958;8.294;2022-07-29T09:46:39;2.63;;;1.92;;
63438;SDS011;49567;48.958;8.294;2022-07-29T09:51:36;3.87;;;2.00;;
63438;SDS011;49567;48.958;8.294;2022-07-29T09:54:02;3.90;;;1.80;;
63438;SDS011;49567;48.958;8.294;2022-07-29T09:56:47;4.40;;;1.90;;
63438;SDS011;49567;48.958;8.294;2022-07-29T09:59:13;2.03;;;1.40;;
63438;SDS011;49567;48.958;8.294;2022-07-29T10:01:38;2.10;;;1.50;;
63438;SDS011;49567;48.958;8.294;2022-07-29T10:04:04;3.92;;;1.50;;
63438;SDS011;49567;48.958;8.294;2022-07-29T10:06:29;4.60;;;1.90;;
63438;SDS011;49567;48.958;8.294;2022-07-29T10:08:55;5.53;;;1.37;;
63438;SDS011;49567;48.958;8.294;2022-07-29T10:11:32;1.30;;;1.20;;
63438;SDS011;49567;48.958;8.294;2022-07-29T10:13:57;4.63;;;1.33;;
63438;SDS011;49567;48.958;8.294;2022-07-29T10:16:23;2.07;;;1.43;;
63438;SDS011;49567;48.958;8.294;2022-07-29T10:18:49;2.38;;;1.42;;
63438;SDS011;49567;48.958;8.294;2022-07-29T10:21:16;1.83;;;1.15;;
63438;SDS011;49567;48.958;8.294;2022-07-29T10:23:41;1.60;;;1.48;;
63438;SDS011;49567;48.958;8.294;2022-07-29T10:26:08;7.57;;;1.75;;
63438;SDS011;49567;48.958;8.294;2022-07-29T10:28:35;1.20;;;1.13;;
63438;SDS011;49567;48.958;8.294;2022-07-29T10:31:01;2.13;;;1.20;;
63438;SDS011;49567;48.958;8.294;2022-07-29T10:39:15;1.15;;;1.15;;
63438;SDS011;49567;48.958;8.294;2022-07-29T10:42:09;2.80;;;1.10;;
63438;SDS011;49567;48.958;8.294;2022-07-29T10:44:42;5.55;;;1.15;;
63438;SDS011;49567;48.958;8.294;2022-07-29T10:47:08;3.35;;;1.10;;
63438;SDS011;49567;48.958;8.294;2022-07-29T10:49:54;1.52;;;1.00;;
63438;SDS011;49567;48.958;8.294;2022-07-29T10:55:33;3.88;;;1.10;;
63438;SDS011;49567;48.958;8.294;2022-07-29T11:00:46;1.98;;;0.93;;
63438;SDS011;49567;48.958;8.294;2022-07-29T11:06:10;2.97;;;1.10;;
63438;SDS011;49567;48.958;8.294;2022-07-29T11:08:36;1.73;;;0.90;;
63438;SDS011;49567;48.958;8.294;2022-07-29T11:13:48;3.30;;;1.50;;
63438;SDS011;49567;48.958;8.294;2022-07-29T11:16:19;1.00;;;1.00;;
63438;SDS011;49567;48.958;8.294;2022-07-29T11:21:38;3.10;;;0.93;;
63438;SDS011;49567;48.958;8.294;2022-07-29T11:24:11;3.05;;;0.90;;
63438;SDS011;49567;48.958;8.294;2022-07-29T11:26:41;1.10;;;1.00;;
63438;SDS011;49567;48.958;8.294;2022-07-29T11:29:16;1.60;;;0.85;;
63438;SDS011;49567;48.958;8.294;2022-07-29T11:31:45;1.25;;;1.02;;
63438;SDS011;49567;48.958;8.294;2022-07-29T11:34:17;3.97;;;1.15;;
63438;SDS011;49567;48.958;8.294;2022-07-29T11:39:39;1.48;;;0.80;;
63438;SDS011;49567;48.958;8.294;2022-07-29T11:42:57;1.73;;;1.00;;
63438;SDS011;49567;48.958;8.294;2022-07-29T11:45:01;1.20;;;1.00;;
63438;SDS011;49567;48.958;8.294;2022-07-29T11:47:39;1.20;;;1.10;;
63438;SDS011;49567;48.958;8.294;2022-07-29T11:50:07;1.57;;;0.87;;
63438;SDS011;49567;48.958;8.294;2022-07-29T11:52:35;2.38;;;0.98;;
63438;SDS011;49567;48.958;8.294;2022-07-29T11:55:07;3.88;;;1.02;;
63438;SDS011;49567;48.958;8.294;2022-07-29T11:57:34;2.50;;;0.98;;
63438;SDS011;49567;48.958;8.294;2022-07-29T12:00:00;1.10;;;0.90;;
63438;SDS011;49567;48.958;8.294;2022-07-29T12:02:37;3.45;;;1.00;;
63438;SDS011;49567;48.958;8.294;2022-07-29T12:05:06;1.92;;;1.00;;
63438;SDS011;49567;48.958;8.294;2022-07-29T12:07:33;1.40;;;0.85;;
63438;SDS011;49567;48.958;8.294;2022-07-29T12:09:59;2.30;;;1.08;;
63438;SDS011;49567;48.958;8.294;2022-07-29T12:12:25;2.07;;;0.90;;
63438;SDS011;49567;48.958;8.294;2022-07-29T12:14:50;3.90;;;1.00;;
63438;SDS011;49567;48.958;8.294;2022-07-29T12:17:32;2.60;;;1.00;;
63438;SDS011;49567;48.958;8.294;2022-07-29T12:20:00;1.05;;;0.98;;
63438;SDS011;49567;48.958;8.294;2022-07-29T12:22:33;5.07;;;1.47;;
63438;SDS011;49567;48.958;8.294;2022-07-29T12:25:03;1.15;;;1.00;;
63438;SDS011;49567;48.958;8.294;2022-07-29T12:27:30;1.40;;;1.30;;
63438;SDS011;49567;48.958;8.294;2022-07-29T12:29:59;2.20;;;1.27;;
63438;SDS011;49567;48.958;8.294;2022-07-29T12:32:41;1.45;;;0.95;;
63438;SDS011;49567;48.958;8.294;2022-07-29T12:35:14;2.67;;;1.00;;
63438;SDS011;49567;48.958;8.294;2022-07-29T12:37:41;4.60;;;0.88;;
63438;SDS011;49567;48.958;8.294;2022-07-29T12:40:08;2.42;;;1.10;;
63438;SDS011;49567;48.958;8.294;2022-07-29T12:42:35;3.33;;;0.88;;
63438;SDS011;49567;48.958;8.294;2022-07-29T12:45:02;4.32;;;1.08;;
63438;SDS011;49567;48.958;8.294;2022-07-29T12:47:29;0.82;;;0.82;;
63438;SDS011;49567;48.958;8.294;2022-07-29T12:50:11;1.70;;;1.00;;
63438;SDS011;49567;48.958;8.294;2022-07-29T12:52:40;1.25;;;0.70;;
63438;SDS011;49567;48.958;8.294;2022-07-29T12:55:05;4.07;;;1.20;;
63438;SDS011;49567;48.958;8.294;2022-07-29T12:57:31;2.08;;;0.73;;
63438;SDS011;49567;48.958;8.294;2022-07-29T13:02:28;1.77;;;0.82;;
63438;SDS011;49567;48.958;8.294;2022-07-29T13:04:54;2.20;;;0.70;;
63438;SDS011;49567;48.958;8.294;2022-07-29T13:07:25;4.70;;;1.05;;
63438;SDS011;49567;48.958;8.294;2022-07-29T13:09:52;5.78;;;0.80;;
63438;SDS011;49567;48.958;8.294;2022-07-29T13:12:18;1.80;;;1.17;;
63438;SDS011;49567;48.958;8.294;2022-07-29T13:14:47;3.10;;;1.20;;
63438;SDS011;49567;48.958;8.294;2022-07-29T13:17:14;3.43;;;1.10;;
63438;SDS011;49567;48.958;8.294;2022-07-29T13:22:14;0.93;;;0.73;;
63438;SDS011;49567;48.958;8.294;2022-07-29T13:24:54;2.45;;;0.82;;
63438;SDS011;49567;48.958;8.294;2022-07-29T13:30:43;1.05;;;0.90;;
63438;SDS011;49567;48.958;8.294;2022-07-29T13:33:08;4.10;;;1.00;;
63438;SDS011;49567;48.958;8.294;2022-07-29T13:35:34;4.40;;;1.27;;
63438;SDS011;49567;48.958;8.294;2022-07-29T13:37:59;2.00;;;0.90;;
63438;SDS011;49567;48.958;8.294;2022-07-29T13:40:24;2.10;;;1.10;;
63438;SDS011;49567;48.958;8.294;2022-07-29T13:42:50;1.83;;;0.80;;
63438;SDS011;49567;48.958;8.294;2022-07-29T13:45:15;2.60;;;0.80;;
63438;SDS011;49567;48.958;8.294;2022-07-29T13:47:40;1.80;;;1.10;;
63438;SDS011;49567;48.958;8.294;2022-07-29T13:50:06;2.10;;;0.70;;
63438;SDS011;49567;48.958;8.294;2022-07-29T13:52:34;0.90;;;0.70;;
63438;SDS011;49567;48.958;8.294;2022-07-29T13:55:00;0.80;;;0.80;;
63438;SDS011;49567;48.958;8.294;2022-07-29T13:57:26;0.80;;;0.73;;
63438;SDS011;49567;48.958;8.294;2022-07-29T13:59:52;1.23;;;0.90;;
63438;SDS011;49567;48.958;8.294;2022-07-29T14:02:17;2.40;;;0.83;;
63438;SDS011;49567;48.958;8.294;2022-07-29T14:04:43;4.50;;;4.10;;
63438;SDS011;49567;48.958;8.294;2022-07-29T14:07:08;3.90;;;1.30;;
63438;SDS011;49567;48.958;8.294;2022-07-29T14:09:34;3.17;;;1.05;;
63438;SDS011;49567;48.958;8.294;2022-07-29T14:12:00;0.60;;;0.60;;
63438;SDS011;49567;48.958;8.294;2022-07-29T14:14:27;4.55;;;0.93;;
63438;SDS011;49567;48.958;8.294;2022-07-29T14:16:52;3.22;;;0.80;;
63438;SDS011;49567;48.958;8.294;2022-07-29T14:19:17;1.53;;;0.80;;
63438;SDS011;49567;48.958;8.294;2022-07-29T14:21:43;1.10;;;1.00;;
63438;SDS011;49567;48.958;8.294;2022-07-29T14:24:08;0.97;;;0.90;;
63438;SDS011;49567;48.958;8.294;2022-07-29T14:26:33;4.40;;;0.97;;
63438;SDS011;49567;48.958;8.294;2022-07-29T14:29:01;3.73;;;1.03;;
63438;SDS011;49567;48.958;8.294;2022-07-29T14:31:27;0.93;;;0.73;;
63438;SDS011;49567;48.958;8.294;2022-07-29T14:33:52;1.10;;;0.63;;
63438;SDS011;49567;48.958;8.294;2022-07-29T14:36:17;1.43;;;1.27;;
63438;SDS011;49567;48.958;8.294;2022-07-29T14:38:43;1.10;;;0.80;;
63438;SDS011;49567;48.958;8.294;2022-07-29T14:41:08;14.57;;;1.40;;
63438;SDS011;49567;48.958;8.294;2022-07-29T14:43:34;1.93;;;0.83;;
63438;SDS011;49567;48.958;8.294;2022-07-29T14:45:59;2.65;;;0.73;;
63438;SDS011;49567;48.958;8.294;2022-07-29T14:48:25;2.25;;;0.80;;
63438;SDS011;49567;48.958;8.294;2022-07-29T14:50:50;1.55;;;0.90;;
63438;SDS011;49567;48.958;8.294;2022-07-29T14:53:16;2.40;;;0.90;;
63438;SDS011;49567;48.958;8.294;2022-07-29T14:55:41;1.05;;;0.88;;
63438;SDS011;49567;48.958;8.294;2022-07-29T14:58:06;0.70;;;0.70;;
63438;SDS011;49567;48.958;8.294;2022-07-29T15:00:32;2.30;;;0.80;;
63438;SDS011;49567;48.958;8.294;2022-07-29T15:02:59;4.85;;;0.90;;
63438;SDS011;49567;48.958;8.294;2022-07-29T15:05:25;1.83;;;0.77;;
63438;SDS011;49567;48.958;8.294;2022-07-29T15:07:51;0.73;;;0.73;;
63438;SDS011;49567;48.958;8.294;2022-07-29T15:10:16;0.70;;;0.53;;
63438;SDS011;49567;48.958;8.294;2022-07-29T15:12:41;1.98;;;0.80;;
63438;SDS011;49567;48.958;8.294;2022-07-29T15:15:07;1.42;;;0.75;;
63438;SDS011;49567;48.958;8.294;2022-07-29T15:17:33;2.00;;;0.80;;
63438;SDS011;49567;48.958;8.294;2022-07-29T15:19:58;2.03;;;0.97;;
63438;SDS011;49567;48.958;8.294;2022-07-29T15:22:24;0.77;;;0.70;;
63438;SDS011;49567;48.958;8.294;2022-07-29T15:24:49;1.70;;;0.90;;
63438;SDS011;49567;48.958;8.294;2022-07-29T15:27:15;0.83;;;0.47;;
63438;SDS011;49567;48.958;8.294;2022-07-29T15:29:40;0.83;;;0.63;;
63438;SDS011;49567;48.958;8.294;2022-07-29T15:32:06;0.50;;;0.50;;
63438;SDS011;49567;48.958;8.294;2022-07-29T15:34:32;3.10;;;0.90;;
63438;SDS011;49567;48.958;8.294;2022-07-29T15:36:57;3.60;;;0.80;;
63438;SDS011;49567;48.958;8.294;2022-07-29T15:39:22;1.73;;;0.90;;
63438;SDS011;49567;48.958;8.294;2022-07-29T15:41:47;2.80;;;1.20;;
63438;SDS011;49567;48.958;8.294;2022-07-29T15:44:13;1.35;;;0.70;;